createdAt,value
2022-07-30T00:01:56.412Z,85.08
2022-07-30T00:04:28.870Z,84.56
2022-07-30T00:07:03.676Z,85.63
2022-07-30T00:09:36.596Z,86.58
2022-07-30T00:12:09.339Z,86.89
2022-07-30T00:14:42.343Z,87.25
2022-07-30T00:17:14.775Z,86.45
2022-07-30T00:19:47.406Z,85.16
2022-07-30T00:22:19.814Z,84.87
2022-07-30T00:24:52.172Z,84.69
2022-07-30T00:27:25.105Z,84.80
2022-07-30T00:29:58.204Z,85.68
2022-07-30T00:32:30.988Z,86.59
2022-07-30T00:35:04.023Z,85.66
2022-07-30T00:37:36.493Z,85.72
2022-07-30T00:40:09.947Z,86.37
2022-07-30T00:42:44.249Z,86.17
2022-07-30T00:45:18.533Z,87.04
2022-07-30T00:47:51.111Z,87.77
2022-07-30T00:50:23.522Z,88.18
2022-07-30T00:52:56.438Z,88.40
2022-07-30T00:55:28.878Z,88.70
2022-07-30T00:58:01.632Z,89.25
2022-07-30T01:00:35.275Z,88.66
2022-07-30T01:03:07.735Z,88.48
2022-07-30T01:05:40.149Z,87.77
2022-07-30T01:08:12.601Z,86.32
2022-07-30T01:10:45.131Z,85.95
2022-07-30T01:13:17.859Z,86.42
2022-07-30T01:15:51.094Z,86.19
2022-07-30T01:18:45.667Z,86.40
2022-07-30T01:21:23.904Z,86.66
2022-07-30T01:24:06.046Z,88.60
2022-07-30T01:26:39.376Z,89.88
2022-07-30T01:29:14.882Z,89.01
2022-07-30T01:31:49.124Z,89.03
2022-07-30T01:34:23.640Z,88.51
2022-07-30T01:36:58.309Z,88.67
2022-07-30T01:39:31.779Z,88.54
2022-07-30T01:42:08.457Z,88.73
2022-07-30T01:44:43.126Z,89.10
2022-07-30T01:47:17.050Z,88.81
2022-07-30T01:49:52.342Z,88.59
2022-07-30T01:52:30.275Z,88.51
2022-07-30T01:55:03.230Z,88.30
2022-07-30T01:57:38.764Z,88.45
2022-07-30T02:00:12.657Z,89.84
2022-07-30T02:02:54.121Z,90.69
2022-07-30T02:05:30.727Z,91.71
2022-07-30T02:08:09.995Z,90.29
2022-07-30T02:10:45.847Z,88.91
2022-07-30T02:13:23.160Z,88.64
2022-07-30T02:15:59.500Z,89.70
2022-07-30T02:18:40.879Z,89.67
2022-07-30T02:21:17.408Z,89.33
2022-07-30T02:23:52.698Z,90.66
2022-07-30T02:26:27.495Z,89.82
2022-07-30T02:29:02.943Z,89.42
2022-07-30T02:31:38.557Z,88.98
2022-07-30T02:34:13.381Z,89.37
2022-07-30T02:36:47.151Z,88.77
2022-07-30T02:39:21.083Z,89.97
2022-07-30T02:41:56.318Z,89.80
2022-07-30T02:44:30.683Z,89.70
2022-07-30T02:47:04.911Z,89.82
2022-07-30T02:50:02.087Z,88.70
2022-07-30T02:52:36.052Z,89.19
2022-07-30T02:55:10.977Z,90.50
2022-07-30T02:57:46.085Z,90.51
2022-07-30T03:00:20.706Z,89.99
2022-07-30T03:02:56.631Z,90.11
2022-07-30T03:05:30.399Z,90.13
2022-07-30T03:08:07.701Z,89.65
2022-07-30T03:10:43.823Z,89.21
2022-07-30T03:13:17.862Z,89.43
2022-07-30T03:15:52.552Z,90.03
2022-07-30T03:18:32.486Z,90.07
2022-07-30T03:21:07.426Z,89.71
2022-07-30T03:23:41.782Z,89.41
2022-07-30T03:26:17.314Z,90.07
2022-07-30T03:28:50.970Z,89.70
2022-07-30T03:31:24.532Z,90.13
2022-07-30T03:34:02.052Z,91.05
2022-07-30T03:36:35.442Z,91.87
2022-07-30T03:39:08.811Z,92.09
2022-07-30T03:41:42.392Z,93.09
2022-07-30T03:44:19.815Z,91.81
2022-07-30T03:46:54.897Z,91.50
2022-07-30T03:49:28.686Z,90.84
2022-07-30T03:52:02.262Z,91.26
2022-07-30T03:54:35.093Z,91.30
2022-07-30T03:57:26.223Z,91.68
2022-07-30T03:59:58.719Z,91.75
2022-07-30T04:02:40.000Z,91.34
2022-07-30T04:05:37.737Z,92.30
2022-07-30T04:08:14.162Z,92.21
2022-07-30T04:10:47.716Z,91.84
2022-07-30T04:13:36.802Z,92.44
2022-07-30T04:16:39.906Z,93.72
2022-07-30T04:19:15.086Z,94.92
2022-07-30T04:21:49.079Z,93.67
2022-07-30T04:24:23.377Z,94.59
2022-07-30T04:26:56.802Z,93.09
2022-07-30T04:29:29.230Z,93.17
2022-07-30T04:32:01.761Z,93.57
2022-07-30T04:34:55.384Z,95.02
2022-07-30T04:37:48.019Z,94.78
2022-07-30T04:40:20.492Z,94.87
2022-07-30T04:42:52.864Z,93.25
2022-07-30T04:45:25.511Z,94.67
2022-07-30T04:48:01.904Z,93.07
2022-07-30T04:50:54.694Z,91.15
2022-07-30T04:53:29.332Z,91.15
2022-07-30T04:56:06.576Z,93.37
2022-07-30T04:58:40.719Z,93.88
2022-07-30T05:01:18.782Z,94.47
2022-07-30T05:04:10.990Z,95.16
2022-07-30T05:06:45.236Z,92.79
2022-07-30T05:09:17.993Z,90.55
2022-07-30T05:11:51.063Z,92.31
2022-07-30T05:14:24.218Z,90.43
2022-07-30T05:16:56.720Z,89.50
2022-07-30T05:19:29.489Z,88.53
2022-07-30T05:22:06.568Z,87.85
2022-07-30T05:24:46.906Z,87.01
2022-07-30T05:27:20.010Z,87.18
2022-07-30T05:29:52.427Z,85.89
2022-07-30T05:32:28.223Z,86.19
2022-07-30T05:35:00.708Z,86.08
2022-07-30T05:37:34.375Z,85.67
2022-07-30T05:40:07.682Z,85.58
2022-07-30T05:42:58.593Z,85.66
2022-07-30T05:45:31.103Z,84.85
2022-07-30T05:48:04.008Z,83.89
2022-07-30T05:50:36.896Z,82.45
2022-07-30T05:53:09.910Z,81.74
2022-07-30T05:56:02.524Z,78.21
2022-07-30T05:59:01.175Z,76.07
2022-07-30T06:01:53.558Z,75.78
2022-07-30T06:04:34.742Z,73.67
2022-07-30T06:07:10.087Z,71.71
2022-07-30T06:09:43.297Z,71.07
2022-07-30T06:12:16.318Z,71.36
2022-07-30T06:14:48.968Z,70.62
2022-07-30T06:17:28.471Z,70.16
2022-07-30T06:20:17.195Z,68.91
2022-07-30T06:23:08.246Z,69.56
2022-07-30T06:26:01.488Z,68.55
2022-07-30T06:28:38.764Z,68.66
2022-07-30T06:31:20.203Z,67.28
2022-07-30T06:33:52.699Z,65.55
2022-07-30T06:36:25.208Z,65.38
2022-07-30T06:39:04.704Z,65.50
2022-07-30T06:41:57.754Z,64.07
2022-07-30T06:44:34.868Z,62.96
2022-07-30T06:47:30.644Z,63.65
2022-07-30T06:50:05.166Z,62.78
2022-07-30T06:52:37.560Z,63.28
2022-07-30T06:55:10.142Z,61.60
2022-07-30T06:57:50.056Z,61.96
2022-07-30T07:00:48.375Z,60.51
2022-07-30T07:03:21.120Z,58.99
2022-07-30T07:05:53.489Z,59.43
2022-07-30T07:08:25.949Z,60.00
2022-07-30T07:11:00.987Z,59.10
2022-07-30T07:13:37.103Z,58.95
2022-07-30T07:16:13.180Z,58.22
2022-07-30T07:18:49.505Z,58.98
2022-07-30T07:21:22.804Z,57.17
2022-07-30T07:23:59.675Z,56.56
2022-07-30T07:26:58.401Z,57.44
2022-07-30T07:29:32.671Z,55.37
2022-07-30T07:32:08.046Z,54.97
2022-07-30T07:35:00.121Z,54.63
2022-07-30T07:37:32.618Z,54.57
2022-07-30T07:40:06.640Z,54.55
2022-07-30T07:42:43.462Z,53.45
2022-07-30T07:45:16.656Z,53.43
2022-07-30T07:48:05.750Z,52.57
2022-07-30T07:51:01.463Z,52.07
2022-07-30T07:53:37.153Z,51.42
2022-07-30T07:56:09.568Z,49.91
2022-07-30T07:58:44.158Z,49.10
2022-07-30T08:01:19.166Z,49.83
2022-07-30T08:04:20.786Z,48.92
2022-07-30T08:07:11.726Z,48.61
2022-07-30T08:10:00.241Z,47.56
2022-07-30T08:13:02.490Z,46.23
2022-07-30T08:15:55.544Z,46.89
2022-07-30T08:19:00.865Z,45.98
2022-07-30T08:21:37.744Z,46.86
2022-07-30T08:24:10.542Z,46.13
2022-07-30T08:26:42.964Z,44.75
2022-07-30T08:29:17.245Z,43.33
2022-07-30T08:31:50.829Z,43.37
2022-07-30T08:34:25.789Z,43.82
2022-07-30T08:37:00.497Z,43.08
2022-07-30T08:39:33.004Z,43.91
2022-07-30T08:42:07.059Z,43.33
2022-07-30T08:44:41.875Z,43.54
2022-07-30T08:47:17.879Z,42.51
2022-07-30T08:50:16.881Z,42.41
2022-07-30T08:53:28.162Z,41.15
2022-07-30T08:56:01.061Z,41.95
2022-07-30T08:58:34.773Z,41.11
2022-07-30T09:01:07.267Z,40.50
2022-07-30T09:03:44.434Z,42.23
2022-07-30T09:06:17.934Z,40.56
2022-07-30T09:08:50.381Z,39.40
2022-07-30T09:11:23.314Z,38.74
2022-07-30T09:14:08.629Z,39.17
2022-07-30T09:16:43.415Z,38.13
2022-07-30T09:19:17.407Z,37.55
2022-07-30T09:21:59.105Z,37.49
2022-07-30T09:24:54.767Z,38.62
2022-07-30T09:27:48.566Z,39.45
2022-07-30T09:30:53.038Z,38.44
2022-07-30T09:33:48.376Z,37.98
2022-07-30T09:36:39.411Z,37.49
2022-07-30T09:39:39.863Z,37.16
2022-07-30T09:42:26.067Z,38.09
2022-07-30T09:45:06.056Z,36.04
2022-07-30T09:47:40.140Z,34.32
2022-07-30T09:50:17.946Z,34.60
2022-07-30T09:53:07.083Z,32.98
2022-07-30T09:55:41.307Z,33.87
2022-07-30T09:58:17.323Z,34.46
2022-07-30T10:01:00.811Z,33.88
2022-07-30T10:03:46.617Z,33.78
2022-07-30T10:06:41.935Z,32.52
2022-07-30T10:09:37.276Z,33.19
2022-07-30T10:12:13.835Z,33.72
2022-07-30T10:14:54.176Z,33.95
2022-07-30T10:17:26.667Z,31.95
2022-07-30T10:20:29.566Z,32.65
2022-07-30T10:23:28.916Z,31.52
2022-07-30T10:26:23.613Z,32.82
2022-07-30T10:29:34.086Z,32.25
2022-07-30T10:32:07.404Z,31.29
2022-07-30T10:34:42.991Z,32.07
2022-07-30T10:37:16.183Z,31.29
2022-07-30T10:39:56.199Z,29.47
2022-07-30T10:42:46.167Z,30.16
2022-07-30T10:45:23.592Z,28.83
2022-07-30T10:47:57.219Z,30.17
2022-07-30T10:50:30.766Z,29.10
2022-07-30T10:53:03.793Z,29.50
2022-07-30T10:55:39.077Z,28.99
2022-07-30T10:58:14.368Z,29.47
2022-07-30T11:01:01.156Z,30.04
2022-07-30T11:03:41.357Z,29.64
2022-07-30T11:06:27.958Z,29.14
2022-07-30T11:09:00.655Z,30.31
2022-07-30T11:12:01.778Z,30.34
2022-07-30T11:15:07.403Z,30.42
2022-07-30T11:18:03.319Z,29.63
2022-07-30T11:20:36.990Z,30.38
2022-07-30T11:23:14.114Z,29.84
2022-07-30T11:25:51.463Z,29.58
2022-07-30T11:28:35.395Z,29.60
2022-07-30T11:31:49.911Z,30.38
2022-07-30T11:34:26.988Z,30.04
2022-07-30T11:37:19.202Z,28.97
2022-07-30T11:40:10.171Z,30.94
2022-07-30T11:42:42.838Z,29.81
2022-07-30T11:45:29.725Z,29.09
2022-07-30T11:48:10.104Z,29.47
2022-07-30T11:50:43.256Z,29.49
2022-07-30T11:53:18.212Z,29.28
2022-07-30T11:55:55.170Z,29.61
2022-07-30T11:58:29.466Z,30.85
2022-07-30T12:01:03.496Z,32.83
2022-07-30T12:03:43.937Z,32.47
2022-07-30T12:06:18.967Z,33.31
2022-07-30T12:08:57.868Z,32.63
2022-07-30T12:11:32.479Z,33.05
2022-07-30T12:14:05.267Z,33.13
2022-07-30T12:16:37.672Z,33.72
2022-07-30T12:19:10.043Z,32.88
2022-07-30T12:21:43.382Z,33.00
2022-07-30T12:24:15.834Z,32.75
2022-07-30T12:26:48.296Z,32.30
2022-07-30T12:29:20.790Z,32.14
2022-07-30T12:31:53.298Z,33.27
2022-07-30T12:34:26.971Z,32.13
2022-07-30T12:37:08.066Z,31.49
2022-07-30T12:39:40.669Z,31.85
2022-07-30T12:42:18.408Z,31.94
2022-07-30T12:44:50.758Z,31.99
2022-07-30T12:47:25.066Z,31.57
2022-07-30T12:49:59.561Z,31.51
2022-07-30T12:52:37.003Z,31.02
2022-07-30T12:55:11.922Z,31.80
2022-07-30T12:58:00.771Z,31.80
2022-07-30T13:00:47.534Z,31.59
2022-07-30T13:03:21.276Z,31.47
2022-07-30T13:05:55.654Z,31.98
2022-07-30T13:08:50.480Z,32.44
2022-07-30T13:11:24.628Z,31.51
2022-07-30T13:13:56.995Z,32.40
2022-07-30T13:16:32.036Z,32.43
2022-07-30T13:19:04.967Z,32.80
2022-07-30T13:21:38.101Z,32.39
2022-07-30T13:24:11.544Z,32.89
2022-07-30T13:26:50.986Z,33.28
2022-07-30T13:29:23.444Z,32.84
2022-07-30T13:31:55.792Z,32.78
2022-07-30T13:34:28.173Z,31.63
2022-07-30T13:37:00.969Z,33.11
2022-07-30T13:39:34.260Z,31.98
2022-07-30T13:42:06.858Z,30.94
2022-07-30T13:44:39.253Z,31.49
2022-07-30T13:47:11.643Z,32.67
2022-07-30T13:49:45.659Z,31.60
2022-07-30T13:52:18.163Z,32.14
2022-07-30T13:54:52.978Z,31.66
2022-07-30T13:57:25.397Z,32.81
2022-07-30T13:59:57.825Z,32.52
2022-07-30T14:02:30.979Z,32.45
2022-07-30T14:05:06.420Z,33.85
2022-07-30T14:07:39.876Z,33.90
2022-07-30T14:10:12.959Z,34.86
2022-07-30T14:12:45.330Z,32.96
2022-07-30T14:15:18.065Z,32.42
2022-07-30T14:17:56.111Z,33.63
2022-07-30T14:20:29.724Z,33.96
2022-07-30T14:23:02.155Z,34.21
2022-07-30T14:25:35.243Z,34.70
2022-07-30T14:28:07.639Z,34.53
2022-07-30T14:30:40.091Z,34.70
2022-07-30T14:33:13.233Z,34.94
2022-07-30T14:35:45.710Z,35.12
2022-07-30T14:38:18.097Z,34.18
2022-07-30T14:40:51.099Z,35.07
2022-07-30T14:43:26.613Z,34.59
2022-07-30T14:45:58.923Z,34.67
2022-07-30T14:48:31.385Z,34.91
2022-07-30T14:51:14.773Z,35.21
2022-07-30T14:53:50.866Z,35.10
2022-07-30T14:56:24.702Z,36.06
2022-07-30T14:58:58.037Z,36.70
2022-07-30T15:01:30.619Z,37.57
2022-07-30T15:04:03.084Z,37.63
2022-07-30T15:06:35.575Z,37.23
2022-07-30T15:09:08.733Z,37.43
2022-07-30T15:12:07.888Z,37.48
2022-07-30T15:14:34.267Z,38.46
2022-07-30T15:17:07.083Z,37.90
2022-07-30T15:19:50.102Z,38.02
2022-07-30T15:22:23.527Z,36.70
2022-07-30T15:24:55.929Z,37.50
2022-07-30T15:27:34.106Z,37.36
2022-07-30T15:30:07.501Z,38.24
2022-07-30T15:32:39.984Z,38.62
2022-07-30T15:35:13.935Z,37.89
2022-07-30T15:37:47.407Z,38.69
2022-07-30T15:40:19.869Z,38.46
2022-07-30T15:42:53.176Z,39.71
2022-07-30T15:45:25.619Z,40.28
2022-07-30T15:47:57.995Z,41.90
2022-07-30T15:50:30.455Z,41.67
2022-07-30T15:53:07.954Z,41.75
2022-07-30T15:55:47.284Z,42.33
2022-07-30T15:58:20.772Z,42.15
2022-07-30T16:00:53.320Z,42.99
2022-07-30T16:03:25.848Z,43.02
2022-07-30T16:05:58.182Z,43.73
2022-07-30T16:08:30.594Z,43.91
2022-07-30T16:11:03.794Z,44.14
2022-07-30T16:13:36.893Z,44.49
2022-07-30T16:16:09.285Z,45.14
2022-07-30T16:18:41.774Z,45.30
2022-07-30T16:21:14.284Z,45.49
2022-07-30T16:23:46.653Z,45.49
2022-07-30T16:26:19.287Z,46.04
2022-07-30T16:28:52.414Z,46.13
2022-07-30T16:31:24.790Z,45.71
2022-07-30T16:33:57.296Z,45.38
2022-07-30T16:36:29.758Z,45.71
2022-07-30T16:39:02.175Z,47.06
2022-07-30T16:41:34.697Z,47.10
2022-07-30T16:44:07.773Z,47.40
2022-07-30T16:46:40.181Z,48.23
2022-07-30T16:49:12.677Z,49.70
2022-07-30T16:51:45.134Z,49.08
2022-07-30T16:54:17.540Z,49.12
2022-07-30T16:56:52.079Z,49.54
2022-07-30T16:59:25.256Z,49.38
2022-07-30T17:01:57.616Z,48.74
2022-07-30T17:04:30.068Z,47.42
2022-07-30T17:07:02.522Z,47.54
2022-07-30T17:09:36.777Z,48.59
2022-07-30T17:12:12.394Z,48.60
2022-07-30T17:14:45.723Z,48.33
2022-07-30T17:17:18.201Z,48.38
2022-07-30T17:19:50.609Z,48.36
2022-07-30T17:22:23.324Z,49.07
2022-07-30T17:24:55.766Z,49.19
2022-07-30T17:27:29.260Z,48.68
2022-07-30T17:30:04.448Z,50.37
2022-07-30T17:32:36.827Z,51.63
2022-07-30T17:35:13.728Z,51.85
2022-07-30T17:37:46.466Z,51.71
2022-07-30T17:40:30.226Z,52.11
2022-07-30T17:43:05.036Z,52.45
2022-07-30T17:45:38.114Z,51.31
2022-07-30T17:48:10.447Z,51.70
2022-07-30T17:50:42.890Z,51.96
2022-07-30T17:53:15.279Z,51.65
2022-07-30T17:55:57.900Z,51.48
2022-07-30T17:58:30.676Z,51.61
2022-07-30T18:01:04.326Z,51.05
2022-07-30T18:03:37.635Z,51.08
2022-07-30T18:06:17.622Z,52.71
2022-07-30T18:08:50.223Z,60.77
2022-07-30T18:11:22.925Z,66.85
2022-07-30T18:13:56.150Z,74.79
2022-07-30T18:16:29.243Z,76.06
2022-07-30T18:19:01.654Z,81.81
2022-07-30T18:21:34.009Z,82.24
2022-07-30T18:24:11.706Z,82.85
2022-07-30T18:26:46.166Z,83.89
2022-07-30T18:29:18.542Z,83.90
2022-07-30T18:31:51.647Z,86.00
2022-07-30T18:34:24.017Z,83.48
2022-07-30T18:36:56.371Z,74.88
2022-07-30T18:39:28.881Z,83.98
2022-07-30T18:42:02.807Z,86.37
2022-07-30T18:44:35.399Z,84.43
2022-07-30T18:47:09.293Z,83.86
2022-07-30T18:49:41.764Z,85.71
2022-07-30T18:52:14.195Z,88.46
2022-07-30T18:54:46.683Z,87.08
2022-07-30T18:57:19.204Z,86.39
2022-07-30T18:59:51.652Z,87.17
2022-07-30T19:02:24.991Z,87.36
2022-07-30T19:04:58.234Z,87.68
2022-07-30T19:07:30.684Z,88.60
2022-07-30T19:10:23.105Z,92.73
2022-07-30T19:12:58.872Z,93.03
2022-07-30T19:15:31.294Z,87.68
2022-07-30T19:18:04.509Z,89.19
2022-07-30T19:20:37.054Z,92.53
2022-07-30T19:23:09.478Z,93.95
2022-07-30T19:25:42.143Z,94.16
2022-07-30T19:28:16.402Z,95.01
2022-07-30T19:30:48.817Z,95.30
2022-07-30T19:33:23.417Z,95.57
2022-07-30T19:35:55.849Z,94.35
2022-07-30T19:38:28.271Z,94.54
2022-07-30T19:41:00.938Z,93.00
2022-07-30T19:43:33.569Z,93.09
2022-07-30T19:46:06.075Z,91.67
2022-07-30T19:48:39.176Z,92.65
2022-07-30T19:51:15.678Z,93.88
2022-07-30T19:53:53.231Z,93.04
2022-07-30T19:56:25.690Z,92.62
2022-07-30T19:58:59.504Z,94.40
2022-07-30T20:01:40.545Z,93.25
2022-07-30T20:04:14.475Z,93.35
2022-07-30T20:06:48.191Z,94.48
2022-07-30T20:09:20.594Z,90.90
2022-07-30T20:11:53.001Z,91.59
2022-07-30T20:14:28.477Z,90.51
2022-07-30T20:17:01.920Z,90.86
2022-07-30T20:19:36.204Z,91.93
2022-07-30T20:22:09.727Z,94.95
2022-07-30T20:24:47.814Z,93.20
2022-07-30T20:27:37.113Z,90.78
2022-07-30T20:30:12.370Z,93.70
2022-07-30T20:32:47.046Z,96.87
2022-07-30T20:35:20.756Z,97.41
2022-07-30T20:37:54.962Z,97.68
2022-07-30T20:40:46.695Z,97.49
2022-07-30T20:43:19.341Z,93.92
2022-07-30T20:45:51.719Z,94.63
2022-07-30T20:48:28.161Z,93.81
2022-07-30T20:51:01.887Z,91.40
2022-07-30T20:53:36.945Z,93.02
2022-07-30T20:56:09.532Z,93.55
2022-07-30T20:58:45.966Z,94.51
2022-07-30T21:01:20.024Z,96.01
2022-07-30T21:03:52.447Z,98.08
2022-07-30T21:06:26.191Z,98.54
2022-07-30T21:08:59.058Z,100.00
2022-07-30T21:11:31.769Z,100.00
2022-07-30T21:14:09.873Z,100.00
2022-07-30T21:16:42.783Z,100.00
2022-07-30T21:19:16.984Z,100.00
2022-07-30T21:21:53.101Z,100.00
2022-07-30T21:24:25.480Z,100.00
2022-07-30T21:26:58.832Z,100.00
2022-07-30T21:29:33.148Z,100.00
2022-07-30T21:32:10.077Z,100.00
2022-07-30T21:34:44.576Z,100.00
2022-07-30T21:37:18.675Z,100.00
2022-07-30T21:39:52.058Z,100.00
2022-07-30T21:42:30.300Z,100.00
2022-07-30T21:45:03.002Z,100.00
2022-07-30T21:47:35.725Z,100.00
2022-07-30T21:50:09.195Z,100.00
2022-07-30T21:52:42.467Z,100.00
2022-07-30T21:55:14.888Z,100.00
2022-07-30T21:57:47.567Z,100.00
2022-07-30T22:00:30.828Z,100.00
2022-07-30T22:03:03.280Z,100.00
2022-07-30T22:05:56.110Z,100.00
2022-07-30T22:08:29.559Z,100.00
2022-07-30T22:11:04.899Z,100.00
2022-07-30T22:13:51.298Z,100.00
2022-07-30T22:16:25.882Z,100.00
2022-07-30T22:18:59.836Z,100.00
2022-07-30T22:21:32.240Z,100.00
2022-07-30T22:24:05.942Z,100.00
2022-07-30T22:26:38.807Z,100.00
2022-07-30T22:29:11.195Z,100.00
2022-07-30T22:31:44.612Z,100.00
2022-07-30T22:34:17.005Z,100.00
2022-07-30T22:36:49.685Z,100.00
2022-07-30T22:39:22.752Z,99.42
2022-07-30T22:42:05.516Z,98.93
2022-07-30T22:45:05.428Z,99.24
2022-07-30T22:47:50.998Z,99.37
2022-07-30T22:50:30.407Z,99.60
2022-07-30T22:53:23.678Z,99.34
2022-07-30T22:55:57.919Z,99.16
2022-07-30T22:58:30.364Z,99.28
2022-07-30T23:01:02.774Z,99.17
2022-07-30T23:03:35.439Z,99.00
2022-07-30T23:06:07.856Z,99.77
2022-07-30T23:08:47.082Z,99.82
2022-07-30T23:11:20.776Z,99.73
2022-07-30T23:13:58.240Z,100.00
2022-07-30T23:16:30.622Z,100.00
2022-07-30T23:19:03.399Z,100.00
2022-07-30T23:21:35.805Z,100.00
2022-07-30T23:24:08.426Z,100.00
2022-07-30T23:26:43.778Z,100.00
2022-07-30T23:29:16.111Z,100.00
2022-07-30T23:31:48.651Z,100.00
2022-07-30T23:34:21.002Z,100.00
2022-07-30T23:36:53.404Z,100.00
2022-07-30T23:39:25.764Z,100.00
2022-07-30T23:41:58.871Z,100.00
2022-07-30T23:44:34.334Z,100.00
2022-07-30T23:47:09.380Z,100.00
2022-07-30T23:49:41.922Z,100.00
2022-07-30T23:52:14.294Z,100.00
2022-07-30T23:54:46.663Z,100.00
2022-07-30T23:57:19.751Z,100.00
2022-07-30T23:59:52.182Z,100.00
